• Join FlightAware (Why Join?)
  • Login
  • US Flag 
07:32AM EST


 

Airport Tracker/Info


-or-


 

Live Flight TrackerFlight Track Log ✈ MMY59 ✈ 06-May-2012 ✈ KSTS - KRDD

Flight Track Log - Related Links

Times and Time Zones

All times are in EDT time to prevent confusion due to time zone crossing. See the MMY59 flight status page for this flight to view local times or setup timezone preferences in your user account.

Time Position Orientation Groundspeed Altitude Reporting Facility
EDT Latitude Longitude Course Direction KTS MPH feet Rate Location/Type
09:46PM 38.4953 -122.8044 227° Southwest 116 133 800  Level Oakland Center
09:51PM 38.4186 -122.9086 217° Southwest 92 106 3,900 600 Climbing Oakland Center
09:52PM 38.3975 -122.9292 193° South 97 112 4,400 480 Climbing Oakland Center
09:53PM 38.3722 -122.9364 170° South 97 112 4,900 480 Climbing Oakland Center
09:54PM 38.3453 -122.9303 37° Northeast 97 112 5,400 420 Climbing Oakland Center
09:55PM 38.3558 -122.9200 335° Northwest 42 48 5,800 360 Climbing Oakland Center
09:56PM 38.3744 -122.9311 North 19 22 6,200 420 Climbing Oakland Center
09:57PM 38.3953 -122.9292 359° North 57 66 6,700 480 Climbing Oakland Center
09:58PM 38.4142 -122.9297 348° North 68 78 7,200 360 Climbing Oakland Center
09:59PM 38.4350 -122.9356 354° North 68 78 7,500 360 Climbing Oakland Center
10:00PM 38.4578 -122.9386 353° North 68 78 8,000 420 Climbing Oakland Center
10:01PM 38.4786 -122.9419 354° North 68 78 8,400 300 Climbing Oakland Center
10:02PM 38.5036 -122.9453 353° North 73 84 8,600 240 Climbing Oakland Center
10:03PM 38.5264 -122.9486 350° North 73 84 8,900 300 Climbing Oakland Center
10:04PM 38.5533 -122.9544 355° North 86 99 9,200 120 Climbing Oakland Center
10:05PM 38.5867 -122.9581 355° North 98 113 9,200 -60 Level Oakland Center
10:06PM 38.6181 -122.9617 355° North 109 125 9,100  Descending Oakland Center
10:07PM 38.6492 -122.9653 351° North 109 125 9,200  Climbing Oakland Center
10:08PM 38.6783 -122.9714 327° Northwest 109 125 9,100  Descending Oakland Center
10:09PM 38.7050 -122.9933 332° Northwest 104 120 9,200  Climbing Oakland Center
10:10PM 38.7339 -123.0128 330° Northwest 110 127 9,200 -60 Level Oakland Center
10:11PM 38.7606 -123.0322 324° Northwest 110 127 9,100  Descending Oakland Center
10:12PM 38.7872 -123.0569 324° Northwest 115 132 9,200  Climbing Oakland Center
10:13PM 38.8139 -123.0817 334° Northwest 120 138 9,200 -60 Level Oakland Center
10:14PM 38.8450 -123.1011 330° Northwest 120 138 9,100  Descending Oakland Center
10:15PM 38.8717 -123.1206 324° Northwest 120 138 9,200  Climbing Oakland Center
10:16PM 38.8983 -123.1456 330° Northwest 120 138 9,100 -60 Descending Oakland Center
10:17PM 38.9250 -123.1650 322° Northwest 120 138 9,100  Level Oakland Center
10:18PM 38.9497 -123.1897 330° Northwest 120 138 9,100  Level Oakland Center
10:19PM 38.9764 -123.2092 327° Northwest 120 138 9,100  Level Oakland Center
10:20PM 39.0031 -123.2314 327° Northwest 120 138 9,100  Level Oakland Center
10:21PM 39.0297 -123.2536 330° Northwest 120 138 9,100  Level Oakland Center
10:22PM 39.0567 -123.2733 35° Northeast 120 138 9,100  Level Oakland Center
10:23PM 39.0800 -123.2525 41° Northeast 96 110 9,100  Level Oakland Center
10:24PM 39.1011 -123.2292 46° Northeast 86 99 9,100  Level Oakland Center
10:25PM 39.1206 -123.2031 32° Northeast 94 108 9,100  Level Oakland Center
10:26PM 39.1458 -123.1825 40° Northeast 94 108 9,100  Level Oakland Center
10:27PM 39.1650 -123.1617 41° Northeast 94 108 9,100  Level Oakland Center
10:28PM 39.1864 -123.1381 41° Northeast 94 108 9,100  Level Oakland Center
10:29PM 39.2075 -123.1147 44° Northeast 94 108 9,100  Level Oakland Center
10:30PM 39.2267 -123.0911 37° Northeast 94 108 9,100  Level Oakland Center
10:31PM 39.2481 -123.0703 41° Northeast 94 108 9,100  Level Oakland Center
10:32PM 39.2692 -123.0467 33° Northeast 94 108 9,100  Level Oakland Center
10:33PM 39.2906 -123.0286 47° Northeast 94 108 9,100  Level Oakland Center
10:34PM 39.3097 -123.0022 41° Northeast 89 102 9,100 -60 Level Oakland Center
10:35PM 39.3308 -122.9789 36° Northeast 89 102 9,000  Descending Oakland Center
10:36PM 39.3500 -122.9606 38° Northeast 89 102 9,100  Climbing Oakland Center
10:37PM 39.3733 -122.9369 40° Northeast 89 102 9,100  Level Oakland Center
10:38PM 39.3925 -122.9161 47° Northeast 89 102 9,100  Level Oakland Center
10:39PM 39.4117 -122.8897 38° Northeast 94 108 9,100  Level Oakland Center
10:40PM 39.4328 -122.8686 41° Northeast 94 108 9,100  Level Oakland Center
10:41PM 39.4561 -122.8425 44° Northeast 94 108 9,100  Level Oakland Center
10:42PM 39.4775 -122.8161 38° Northeast 94 108 9,100  Level Oakland Center
10:43PM 39.5008 -122.7925 41° Northeast 94 108 9,100  Level Oakland Center
10:44PM 39.5242 -122.7661 36° Northeast 99 114 9,100  Level Oakland Center
10:45PM 39.5494 -122.7425 32° Northeast 99 114 9,100  Level Oakland Center
10:46PM 39.5725 -122.7242 18° North 104 120 9,100  Level Oakland Center
10:47PM 39.6019 -122.7114 30° Northeast 104 120 9,100  Level Oakland Center
10:48PM 39.6294 -122.6906 20° North 104 120 9,100 -60 Level Oakland Center
10:49PM 39.6567 -122.6778 27° Northeast 104 120 9,000  Descending Oakland Center
10:50PM 39.6800 -122.6622 15° North 99 114 9,100  Climbing Oakland Center
10:51PM 39.7092 -122.6522 26° Northeast 99 114 9,100  Level Oakland Center
10:52PM 39.7344 -122.6364 30° Northeast 94 108 9,100  Level Oakland Center
10:53PM 39.7619 -122.6156 41° Northeast 94 108 9,100  Level Oakland Center
10:54PM 39.7831 -122.5917 44° Northeast 99 114 9,100  Level Oakland Center
10:55PM 39.8022 -122.5678 38° Northeast 99 114 9,100  Level Oakland Center
10:56PM 39.8253 -122.5442 85° East 104 120 9,200  Climbing Oakland Center
10:57PM 39.8281 -122.5061 86° East 91 105 9,100 -420 Descending Oakland Center
11:00PM 39.8336 -122.3875 85° East 102 117 7,600 -600 Descending Oakland Center
11:01PM 39.8361 -122.3469 85° East 102 117 6,900 -660 Descending Oakland Center
11:02PM 39.8386 -122.3092 72° East 102 117 6,300 -420 Descending Oakland Center
11:06PM 39.8647 -122.2067 355° North 66 76 5,000 -180 Descending Oakland Center
11:11PM 39.9958 -122.2225 351° North 88 101 5,100 -60 Climbing Oakland Center
11:12PM 40.0250 -122.2286 355° North 88 101 4,900 -360 Descending Oakland Center
11:13PM 40.0542 -122.2319 355° North 93 107 4,400 -480 Descending Oakland Center
11:14PM 40.0833 -122.2350 344° North 99 114 4,000 -300 Descending Oakland Center
11:15PM 40.1061 -122.2436 350° North 99 114 3,900 -180 Descending Oakland Center
11:16PM 40.1311 -122.2494 335° Northwest 92 106 3,700 -420 Descending Oakland Center
11:17PM 40.1539 -122.2636 341° North 87 100 3,100 -360 Descending Oakland Center
11:18PM 40.1725 -122.2719 337° Northwest 87 100 3,000  Descending Oakland Center
11:19PM 40.1933 -122.2833 344° North 82 94 3,100  Climbing Oakland Center
11:20PM 40.2161 -122.2919 354° North 82 94 3,100 -60 Level Oakland Center
11:21PM 40.2369 -122.2950 354° North 82 94 3,000 -240 Descending Oakland Center
11:22PM 40.2597 -122.2981 359° North 82 94 2,700 -120 Descending Oakland Center
11:23PM 40.2786 -122.2986 North 77 89 2,800  Climbing Oakland Center
11:24PM 40.3017 -122.2961 359° North 77 89 2,800  Level Oakland Center
11:25PM 40.3244 -122.2967 360° North 77 89 2,800 -60 Level Oakland Center
11:26PM 40.3494 -122.2969 359° North 82 94 2,700  Descending Oakland Center
11:27PM 40.3703 -122.2975 North 82 94 2,800 -60 Climbing Oakland Center
11:28PM 40.3953 -122.2953 359° North 82 94 2,600 -480 Descending Oakland Center
11:29PM 40.4161 -122.2956 359° North 82 94 1,900 -660 Descending Oakland Center
11:30PM 40.4350 -122.2958 North 82 94 1,300 -360 Descending Oakland Center
11:31PM 40.4536 -122.2936 359° North 69 79 1,200 -120 Descending Oakland Center
11:32PM 40.4725 -122.2939 359° North 69 79 1,100 -120 Descending Oakland Center